sensor_id;sensor_type;location;lat;lon;timestamp;temperature;humidity
72762;SHT30;60886;55.034;73.150;2022-09-01T00:02:24;16.76;63.50
72762;SHT30;60886;55.034;73.150;2022-09-01T00:04:52;16.83;63.77
72762;SHT30;60886;55.034;73.150;2022-09-01T00:07:28;16.81;64.04
72762;SHT30;60886;55.034;73.150;2022-09-01T00:09:55;16.79;62.97
72762;SHT30;60886;55.034;73.150;2022-09-01T00:12:23;16.86;63.44
72762;SHT30;60886;55.034;73.150;2022-09-01T00:14:51;16.77;65.14
72762;SHT30;60886;55.034;73.150;2022-09-01T00:17:17;16.77;67.25
72762;SHT30;60886;55.034;73.150;2022-09-01T00:19:54;16.77;66.10
72762;SHT30;60886;55.034;73.150;2022-09-01T00:22:30;16.87;65.34
72762;SHT30;60886;55.034;73.150;2022-09-01T00:24:58;16.87;65.84
72762;SHT30;60886;55.034;73.150;2022-09-01T00:27:26;16.83;65.16
72762;SHT30;60886;55.034;73.150;2022-09-01T00:29:53;16.87;67.05
72762;SHT30;60886;55.034;73.150;2022-09-01T00:32:19;16.86;66.06
72762;SHT30;60886;55.034;73.150;2022-09-01T00:34:47;16.94;65.39
72762;SHT30;60886;55.034;73.150;2022-09-01T00:37:13;17.07;63.74
72762;SHT30;60886;55.034;73.150;2022-09-01T00:39:39;17.20;62.17
72762;SHT30;60886;55.034;73.150;2022-09-01T00:42:06;17.32;62.19
72762;SHT30;60886;55.034;73.150;2022-09-01T00:44:33;17.41;60.99
72762;SHT30;60886;55.034;73.150;2022-09-01T00:47:03;17.47;60.50
72762;SHT30;60886;55.034;73.150;2022-09-01T00:49:46;17.54;61.14
72762;SHT30;60886;55.034;73.150;2022-09-01T00:52:28;17.60;60.51
72762;SHT30;60886;55.034;73.150;2022-09-01T00:55:00;17.61;60.81
72762;SHT30;60886;55.034;73.150;2022-09-01T00:57:28;17.65;60.39
72762;SHT30;60886;55.034;73.150;2022-09-01T01:00:23;17.70;60.66
72762;SHT30;60886;55.034;73.150;2022-09-01T01:02:56;17.67;61.10
72762;SHT30;60886;55.034;73.150;2022-09-01T01:05:32;17.64;60.49
72762;SHT30;60886;55.034;73.150;2022-09-01T01:08:04;17.58;59.40
72762;SHT30;60886;55.034;73.150;2022-09-01T01:10:40;17.55;60.15
72762;SHT30;60886;55.034;73.150;2022-09-01T01:13:13;17.58;59.95
72762;SHT30;60886;55.034;73.150;2022-09-01T01:15:42;17.55;59.83
72762;SHT30;60886;55.034;73.150;2022-09-01T01:18:11;17.60;60.84
72762;SHT30;60886;55.034;73.150;2022-09-01T01:20:42;17.62;59.54
72762;SHT30;60886;55.034;73.150;2022-09-01T01:23:51;17.67;61.38
72762;SHT30;60886;55.034;73.150;2022-09-01T01:26:25;17.68;59.71
72762;SHT30;60886;55.034;73.150;2022-09-01T01:28:52;17.60;59.64
72762;SHT30;60886;55.034;73.150;2022-09-01T01:31:20;17.64;61.18
72762;SHT30;60886;55.034;73.150;2022-09-01T01:33:52;17.61;59.86
72762;SHT30;60886;55.034;73.150;2022-09-01T01:36:24;17.68;63.06
72762;SHT30;60886;55.034;73.150;2022-09-01T01:39:04;17.72;61.00
72762;SHT30;60886;55.034;73.150;2022-09-01T01:41:31;17.85;59.64
72762;SHT30;60886;55.034;73.150;2022-09-01T01:44:01;17.93;58.98
72762;SHT30;60886;55.034;73.150;2022-09-01T01:46:44;18.02;63.03
72762;SHT30;60886;55.034;73.150;2022-09-01T01:49:19;18.10;62.68
72762;SHT30;60886;55.034;73.150;2022-09-01T01:51:57;18.21;59.31
72762;SHT30;60886;55.034;73.150;2022-09-01T01:54:28;18.33;58.94
72762;SHT30;60886;55.034;73.150;2022-09-01T01:56:59;18.43;62.17
72762;SHT30;60886;55.034;73.150;2022-09-01T01:59:26;18.52;60.51
72762;SHT30;60886;55.034;73.150;2022-09-01T02:02:00;18.54;58.50
72762;SHT30;60886;55.034;73.150;2022-09-01T02:04:29;18.52;57.39
72762;SHT30;60886;55.034;73.150;2022-09-01T02:07:04;18.52;58.10
72762;SHT30;60886;55.034;73.150;2022-09-01T02:09:37;18.57;58.23
72762;SHT30;60886;55.034;73.150;2022-09-01T02:12:08;18.61;58.24
72762;SHT30;60886;55.034;73.150;2022-09-01T02:14:39;18.74;58.99
72762;SHT30;60886;55.034;73.150;2022-09-01T02:17:05;18.74;61.49
72762;SHT30;60886;55.034;73.150;2022-09-01T02:19:38;18.71;63.05
72762;SHT30;60886;55.034;73.150;2022-09-01T02:22:08;18.73;61.75
72762;SHT30;60886;55.034;73.150;2022-09-01T02:24:37;18.74;62.09
72762;SHT30;60886;55.034;73.150;2022-09-01T02:27:15;18.83;63.44
72762;SHT30;60886;55.034;73.150;2022-09-01T02:29:45;18.88;59.54
72762;SHT30;60886;55.034;73.150;2022-09-01T02:32:21;19.00;62.27
72762;SHT30;60886;55.034;73.150;2022-09-01T02:34:57;19.00;64.55
72762;SHT30;60886;55.034;73.150;2022-09-01T02:37:38;18.98;62.67
72762;SHT30;60886;55.034;73.150;2022-09-01T02:40:07;19.12;62.59
72762;SHT30;60886;55.034;73.150;2022-09-01T02:42:37;19.32;62.28
72762;SHT30;60886;55.034;73.150;2022-09-01T02:45:17;19.65;60.70
72762;SHT30;60886;55.034;73.150;2022-09-01T02:47:50;19.96;59.22
72762;SHT30;60886;55.034;73.150;2022-09-01T02:50:24;20.16;57.83
72762;SHT30;60886;55.034;73.150;2022-09-01T02:53:03;20.43;57.08
72762;SHT30;60886;55.034;73.150;2022-09-01T02:55:40;20.71;55.65
72762;SHT30;60886;55.034;73.150;2022-09-01T02:58:07;20.95;56.28
72762;SHT30;60886;55.034;73.150;2022-09-01T03:00:36;21.12;53.90
72762;SHT30;60886;55.034;73.150;2022-09-01T03:03:10;21.37;52.05
72762;SHT30;60886;55.034;73.150;2022-09-01T03:05:51;21.65;53.61
72762;SHT30;60886;55.034;73.150;2022-09-01T03:08:23;21.86;49.21
72762;SHT30;60886;55.034;73.150;2022-09-01T03:10:51;22.03;47.15
72762;SHT30;60886;55.034;73.150;2022-09-01T03:13:22;22.23;48.68
72762;SHT30;60886;55.034;73.150;2022-09-01T03:16:02;22.44;47.49
72762;SHT30;60886;55.034;73.150;2022-09-01T03:18:33;22.60;46.84
72762;SHT30;60886;55.034;73.150;2022-09-01T03:21:11;22.76;45.47
72762;SHT30;60886;55.034;73.150;2022-09-01T03:23:49;22.83;48.13
72762;SHT30;60886;55.034;73.150;2022-09-01T03:26:18;22.96;46.31
72762;SHT30;60886;55.034;73.150;2022-09-01T03:28:46;23.09;46.36
72762;SHT30;60886;55.034;73.150;2022-09-01T03:31:13;23.20;45.41
72762;SHT30;60886;55.034;73.150;2022-09-01T03:33:41;23.22;44.42
72762;SHT30;60886;55.034;73.150;2022-09-01T03:36:24;23.30;44.77
72762;SHT30;60886;55.034;73.150;2022-09-01T03:38:51;23.39;44.93
72762;SHT30;60886;55.034;73.150;2022-09-01T03:41:24;23.49;43.96
72762;SHT30;60886;55.034;73.150;2022-09-01T03:43:54;23.60;45.32
72762;SHT30;60886;55.034;73.150;2022-09-01T03:46:24;23.77;43.94
72762;SHT30;60886;55.034;73.150;2022-09-01T03:48:58;23.90;44.61
72762;SHT30;60886;55.034;73.150;2022-09-01T03:51:38;24.06;44.58
72762;SHT30;60886;55.034;73.150;2022-09-01T03:54:15;24.16;44.00
72762;SHT30;60886;55.034;73.150;2022-09-01T03:56:43;24.27;43.68
72762;SHT30;60886;55.034;73.150;2022-09-01T03:59:15;24.34;43.76
72762;SHT30;60886;55.034;73.150;2022-09-01T04:01:43;24.45;44.73
72762;SHT30;60886;55.034;73.150;2022-09-01T04:04:21;24.61;43.03
72762;SHT30;60886;55.034;73.150;2022-09-01T04:06:47;24.69;43.70
72762;SHT30;60886;55.034;73.150;2022-09-01T04:09:14;24.78;43.15
72762;SHT30;60886;55.034;73.150;2022-09-01T04:11:43;24.89;43.98
72762;SHT30;60886;55.034;73.150;2022-09-01T04:14:13;25.08;43.95
72762;SHT30;60886;55.034;73.150;2022-09-01T04:16:50;25.23;43.35
72762;SHT30;60886;55.034;73.150;2022-09-01T04:19:36;25.27;42.63
72762;SHT30;60886;55.034;73.150;2022-09-01T04:22:04;25.35;42.63
72762;SHT30;60886;55.034;73.150;2022-09-01T04:24:39;25.42;43.62
72762;SHT30;60886;55.034;73.150;2022-09-01T04:27:07;25.50;42.49
72762;SHT30;60886;55.034;73.150;2022-09-01T04:29:39;25.62;42.36
72762;SHT30;60886;55.034;73.150;2022-09-01T04:32:08;25.74;43.46
72762;SHT30;60886;55.034;73.150;2022-09-01T04:34:39;25.91;42.62
72762;SHT30;60886;55.034;73.150;2022-09-01T04:39:41;26.07;42.72
72762;SHT30;60886;55.034;73.150;2022-09-01T04:42:14;26.22;42.76
72762;SHT30;60886;55.034;73.150;2022-09-01T04:44:48;26.30;42.41
72762;SHT30;60886;55.034;73.150;2022-09-01T04:47:24;26.48;43.22
72762;SHT30;60886;55.034;73.150;2022-09-01T04:50:08;26.62;42.03
72762;SHT30;60886;55.034;73.150;2022-09-01T04:52:40;26.69;42.04
72762;SHT30;60886;55.034;73.150;2022-09-01T04:55:29;26.72;41.34
72762;SHT30;60886;55.034;73.150;2022-09-01T04:58:00;26.86;42.44
72762;SHT30;60886;55.034;73.150;2022-09-01T05:00:29;26.95;41.40
72762;SHT30;60886;55.034;73.150;2022-09-01T05:03:01;27.00;40.86
72762;SHT30;60886;55.034;73.150;2022-09-01T05:05:43;27.00;41.79
72762;SHT30;60886;55.034;73.150;2022-09-01T05:08:13;27.06;41.18
72762;SHT30;60886;55.034;73.150;2022-09-01T05:10:43;27.17;41.48
72762;SHT30;60886;55.034;73.150;2022-09-01T05:13:27;27.32;41.80
72762;SHT30;60886;55.034;73.150;2022-09-01T05:16:04;27.37;40.97
72762;SHT30;60886;55.034;73.150;2022-09-01T05:18:31;27.33;41.68
72762;SHT30;60886;55.034;73.150;2022-09-01T05:21:05;27.33;41.45
72762;SHT30;60886;55.034;73.150;2022-09-01T05:23:45;27.39;41.51
72762;SHT30;60886;55.034;73.150;2022-09-01T05:26:29;27.49;41.33
72762;SHT30;60886;55.034;73.150;2022-09-01T05:29:00;27.51;42.40
72762;SHT30;60886;55.034;73.150;2022-09-01T05:31:28;27.49;42.28
72762;SHT30;60886;55.034;73.150;2022-09-01T05:34:03;27.54;42.82
72762;SHT30;60886;55.034;73.150;2022-09-01T05:36:30;27.60;41.60
72762;SHT30;60886;55.034;73.150;2022-09-01T05:38:59;27.58;42.36
72762;SHT30;60886;55.034;73.150;2022-09-01T05:41:27;27.66;42.75
72762;SHT30;60886;55.034;73.150;2022-09-01T05:43:54;27.68;42.29
72762;SHT30;60886;55.034;73.150;2022-09-01T05:46:23;27.73;42.56
72762;SHT30;60886;55.034;73.150;2022-09-01T05:48:51;27.71;43.36
72762;SHT30;60886;55.034;73.150;2022-09-01T05:51:20;27.73;42.57
72762;SHT30;60886;55.034;73.150;2022-09-01T05:53:52;27.66;42.81
72762;SHT30;60886;55.034;73.150;2022-09-01T05:56:29;27.66;43.17
72762;SHT30;60886;55.034;73.150;2022-09-01T05:58:56;27.71;42.66
72762;SHT30;60886;55.034;73.150;2022-09-01T06:01:27;27.73;42.31
72762;SHT30;60886;55.034;73.150;2022-09-01T06:04:01;27.76;42.39
72762;SHT30;60886;55.034;73.150;2022-09-01T06:06:43;27.78;41.90
72762;SHT30;60886;55.034;73.150;2022-09-01T06:09:15;27.78;42.48
72762;SHT30;60886;55.034;73.150;2022-09-01T06:11:50;27.80;42.26
72762;SHT30;60886;55.034;73.150;2022-09-01T06:14:17;27.78;42.72
72762;SHT30;60886;55.034;73.150;2022-09-01T06:16:45;27.73;42.29
72762;SHT30;60886;55.034;73.150;2022-09-01T06:19:14;27.74;43.12
72762;SHT30;60886;55.034;73.150;2022-09-01T06:21:45;27.83;42.08
72762;SHT30;60886;55.034;73.150;2022-09-01T06:24:14;27.86;42.17
72762;SHT30;60886;55.034;73.150;2022-09-01T06:26:40;27.93;41.81
72762;SHT30;60886;55.034;73.150;2022-09-01T06:29:09;27.91;41.86
72762;SHT30;60886;55.034;73.150;2022-09-01T06:31:47;27.87;41.50
72762;SHT30;60886;55.034;73.150;2022-09-01T06:34:18;27.90;42.10
72762;SHT30;60886;55.034;73.150;2022-09-01T06:36:47;27.88;41.97
72762;SHT30;60886;55.034;73.150;2022-09-01T06:39:18;27.93;42.37
72762;SHT30;60886;55.034;73.150;2022-09-01T06:41:55;27.97;42.50
72762;SHT30;60886;55.034;73.150;2022-09-01T06:44:29;27.97;42.72
72762;SHT30;60886;55.034;73.150;2022-09-01T06:47:04;27.98;42.26
72762;SHT30;60886;55.034;73.150;2022-09-01T06:49:34;27.98;42.13
72762;SHT30;60886;55.034;73.150;2022-09-01T06:52:08;28.05;41.52
72762;SHT30;60886;55.034;73.150;2022-09-01T06:54:42;28.05;41.10
72762;SHT30;60886;55.034;73.150;2022-09-01T06:57:14;28.02;41.23
72762;SHT30;60886;55.034;73.150;2022-09-01T06:59:40;28.08;40.87
72762;SHT30;60886;55.034;73.150;2022-09-01T07:02:07;28.05;40.39
72762;SHT30;60886;55.034;73.150;2022-09-01T07:05:04;27.98;41.16
72762;SHT30;60886;55.034;73.150;2022-09-01T07:07:33;28.00;41.81
72762;SHT30;60886;55.034;73.150;2022-09-01T07:10:18;27.98;41.59
72762;SHT30;60886;55.034;73.150;2022-09-01T07:13:07;27.98;42.86
72762;SHT30;60886;55.034;73.150;2022-09-01T07:15:39;28.00;41.57
72762;SHT30;60886;55.034;73.150;2022-09-01T07:18:06;28.02;41.02
72762;SHT30;60886;55.034;73.150;2022-09-01T07:20:33;28.05;41.28
72762;SHT30;60886;55.034;73.150;2022-09-01T07:23:03;28.14;41.48
72762;SHT30;60886;55.034;73.150;2022-09-01T07:25:29;28.14;40.58
72762;SHT30;60886;55.034;73.150;2022-09-01T07:28:12;28.09;40.14
72762;SHT30;60886;55.034;73.150;2022-09-01T07:33:49;28.09;41.31
72762;SHT30;60886;55.034;73.150;2022-09-01T07:36:17;28.11;41.55
72762;SHT30;60886;55.034;73.150;2022-09-01T07:50:06;28.56;40.50
72762;SHT30;60886;55.034;73.150;2022-09-01T07:52:36;28.45;40.56
72762;SHT30;60886;55.034;73.150;2022-09-01T07:55:10;28.41;41.30
72762;SHT30;60886;55.034;73.150;2022-09-01T07:57:44;28.35;40.82
72762;SHT30;60886;55.034;73.150;2022-09-01T08:00:23;28.29;41.29
72762;SHT30;60886;55.034;73.150;2022-09-01T08:03:04;28.27;40.87
72762;SHT30;60886;55.034;73.150;2022-09-01T08:05:41;28.28;41.69
72762;SHT30;60886;55.034;73.150;2022-09-01T08:08:08;28.24;41.04
72762;SHT30;60886;55.034;73.150;2022-09-01T08:10:39;28.05;40.09
72762;SHT30;60886;55.034;73.150;2022-09-01T08:13:11;27.97;39.59
72762;SHT30;60886;55.034;73.150;2022-09-01T08:15:38;27.88;39.79
72762;SHT30;60886;55.034;73.150;2022-09-01T08:18:10;27.88;39.12
72762;SHT30;60886;55.034;73.150;2022-09-01T08:20:42;27.94;39.21
72762;SHT30;60886;55.034;73.150;2022-09-01T08:23:32;27.88;39.79
72762;SHT30;60886;55.034;73.150;2022-09-01T08:26:14;27.86;39.65
72762;SHT30;60886;55.034;73.150;2022-09-01T08:28:45;27.88;40.06
72762;SHT30;60886;55.034;73.150;2022-09-01T08:31:18;27.94;39.86
72762;SHT30;60886;55.034;73.150;2022-09-01T08:33:51;27.96;40.32
72762;SHT30;60886;55.034;73.150;2022-09-01T08:36:19;27.93;39.16
72762;SHT30;60886;55.034;73.150;2022-09-01T08:38:46;27.96;39.76
72762;SHT30;60886;55.034;73.150;2022-09-01T08:41:43;28.01;40.43
72762;SHT30;60886;55.034;73.150;2022-09-01T08:44:40;28.04;40.29
72762;SHT30;60886;55.034;73.150;2022-09-01T08:47:14;28.05;40.62
72762;SHT30;60886;55.034;73.150;2022-09-01T08:49:42;28.04;41.07
72762;SHT30;60886;55.034;73.150;2022-09-01T08:52:33;28.01;40.70
72762;SHT30;60886;55.034;73.150;2022-09-01T08:55:15;27.97;40.63
72762;SHT30;60886;55.034;73.150;2022-09-01T08:57:44;28.01;41.09
72762;SHT30;60886;55.034;73.150;2022-09-01T09:00:26;27.96;40.88
72762;SHT30;60886;55.034;73.150;2022-09-01T09:03:37;27.86;40.78
72762;SHT30;60886;55.034;73.150;2022-09-01T09:08:54;27.84;42.10
72762;SHT30;60886;55.034;73.150;2022-09-01T09:16:57;27.76;42.88
72762;SHT30;60886;55.034;73.150;2022-09-01T09:19:36;27.80;43.16
72762;SHT30;60886;55.034;73.150;2022-09-01T09:22:06;27.80;43.34
72762;SHT30;60886;55.034;73.150;2022-09-01T09:24:54;27.76;43.23
72762;SHT30;60886;55.034;73.150;2022-09-01T09:27:31;27.66;43.36
72762;SHT30;60886;55.034;73.150;2022-09-01T09:30:21;27.61;43.58
72762;SHT30;60886;55.034;73.150;2022-09-01T09:32:54;27.53;44.21
72762;SHT30;60886;55.034;73.150;2022-09-01T09:35:34;27.51;43.75
72762;SHT30;60886;55.034;73.150;2022-09-01T09:41:01;27.47;44.47
72762;SHT30;60886;55.034;73.150;2022-09-01T09:43:36;27.39;44.40
72762;SHT30;60886;55.034;73.150;2022-09-01T09:46:34;27.37;44.50
72762;SHT30;60886;55.034;73.150;2022-09-01T09:54:31;27.34;44.08
72762;SHT30;60886;55.034;73.150;2022-09-01T09:57:13;27.33;43.91
72762;SHT30;60886;55.034;73.150;2022-09-01T10:07:57;27.47;44.86
72762;SHT30;60886;55.034;73.150;2022-09-01T10:12:54;27.53;45.19
72762;SHT30;60886;55.034;73.150;2022-09-01T10:15:32;27.53;44.18
72762;SHT30;60886;55.034;73.150;2022-09-01T10:18:14;27.43;44.19
72762;SHT30;60886;55.034;73.150;2022-09-01T10:20:52;27.37;44.71
72762;SHT30;60886;55.034;73.150;2022-09-01T10:23:20;27.43;44.67
72762;SHT30;60886;55.034;73.150;2022-09-01T10:25:48;27.44;44.63
72762;SHT30;60886;55.034;73.150;2022-09-01T10:28:17;27.37;45.05
72762;SHT30;60886;55.034;73.150;2022-09-01T10:30:52;27.34;45.19
72762;SHT30;60886;55.034;73.150;2022-09-01T10:33:21;27.36;45.11
72762;SHT30;60886;55.034;73.150;2022-09-01T10:35:53;27.26;45.40
72762;SHT30;60886;55.034;73.150;2022-09-01T10:38:25;27.12;46.07
72762;SHT30;60886;55.034;73.150;2022-09-01T10:40:58;27.09;45.96
72762;SHT30;60886;55.034;73.150;2022-09-01T10:43:45;26.99;46.39
72762;SHT30;60886;55.034;73.150;2022-09-01T10:48:57;26.92;46.64
72762;SHT30;60886;55.034;73.150;2022-09-01T10:53:54;26.91;47.40
72762;SHT30;60886;55.034;73.150;2022-09-01T10:56:23;26.85;47.07
72762;SHT30;60886;55.034;73.150;2022-09-01T11:04:12;26.79;47.47
72762;SHT30;60886;55.034;73.150;2022-09-01T11:14:59;26.59;48.26
72762;SHT30;60886;55.034;73.150;2022-09-01T11:17:35;26.55;49.38
72762;SHT30;60886;55.034;73.150;2022-09-01T11:25:43;26.45;49.53
72762;SHT30;60886;55.034;73.150;2022-09-01T11:30:58;26.28;49.91
72762;SHT30;60886;55.034;73.150;2022-09-01T11:36:33;26.11;51.17
72762;SHT30;60886;55.034;73.150;2022-09-01T11:42:10;25.97;52.93
72762;SHT30;60886;55.034;73.150;2022-09-01T11:45:02;25.83;53.27
72762;SHT30;60886;55.034;73.150;2022-09-01T11:47:39;25.73;53.57
72762;SHT30;60886;55.034;73.150;2022-09-01T11:50:20;25.57;54.02
72762;SHT30;60886;55.034;73.150;2022-09-01T11:52:58;25.45;54.45
72762;SHT30;60886;55.034;73.150;2022-09-01T11:55:41;25.33;54.69
72762;SHT30;60886;55.034;73.150;2022-09-01T11:58:32;25.23;55.34
72762;SHT30;60886;55.034;73.150;2022-09-01T12:01:21;25.11;55.48
72762;SHT30;60886;55.034;73.150;2022-09-01T12:03:50;25.01;55.65
72762;SHT30;60886;55.034;73.150;2022-09-01T12:06:23;24.94;56.39
72762;SHT30;60886;55.034;73.150;2022-09-01T12:09:04;24.82;56.11
72762;SHT30;60886;55.034;73.150;2022-09-01T12:11:32;24.69;56.25
72762;SHT30;60886;55.034;73.150;2022-09-01T12:14:07;24.57;56.74
72762;SHT30;60886;55.034;73.150;2022-09-01T12:16:40;24.45;57.19
72762;SHT30;60886;55.034;73.150;2022-09-01T12:19:23;24.34;57.55
72762;SHT30;60886;55.034;73.150;2022-09-01T12:22:17;24.21;57.78
72762;SHT30;60886;55.034;73.150;2022-09-01T12:24:52;24.16;58.01
72762;SHT30;60886;55.034;73.150;2022-09-01T12:27:20;24.07;58.48
72762;SHT30;60886;55.034;73.150;2022-09-01T12:29:50;23.96;58.64
72762;SHT30;60886;55.034;73.150;2022-09-01T12:32:17;23.84;58.55
72762;SHT30;60886;55.034;73.150;2022-09-01T12:35:03;23.79;58.81
72762;SHT30;60886;55.034;73.150;2022-09-01T12:37:30;23.67;59.11
72762;SHT30;60886;55.034;73.150;2022-09-01T12:39:58;23.59;58.72
72762;SHT30;60886;55.034;73.150;2022-09-01T12:42:32;23.46;58.73
72762;SHT30;60886;55.034;73.150;2022-09-01T12:45:02;23.29;58.83
72762;SHT30;60886;55.034;73.150;2022-09-01T12:53:13;23.06;59.60
72762;SHT30;60886;55.034;73.150;2022-09-01T12:55:58;22.98;59.89
72762;SHT30;60886;55.034;73.150;2022-09-01T12:58:27;22.90;59.92
72762;SHT30;60886;55.034;73.150;2022-09-01T13:03:28;22.78;58.66
72762;SHT30;60886;55.034;73.150;2022-09-01T13:05:59;22.74;58.88
72762;SHT30;60886;55.034;73.150;2022-09-01T13:08:32;22.69;58.86
72762;SHT30;60886;55.034;73.150;2022-09-01T13:11:13;22.61;59.20
72762;SHT30;60886;55.034;73.150;2022-09-01T13:13:41;22.55;59.33
72762;SHT30;60886;55.034;73.150;2022-09-01T13:16:08;22.45;59.60
72762;SHT30;60886;55.034;73.150;2022-09-01T13:18:43;22.34;59.62
72762;SHT30;60886;55.034;73.150;2022-09-01T13:21:11;22.29;59.58
72762;SHT30;60886;55.034;73.150;2022-09-01T13:23:38;22.21;59.86
72762;SHT30;60886;55.034;73.150;2022-09-01T13:26:05;22.18;59.89
72762;SHT30;60886;55.034;73.150;2022-09-01T13:28:31;22.14;59.76
72762;SHT30;60886;55.034;73.150;2022-09-01T13:31:03;22.09;59.70
72762;SHT30;60886;55.034;73.150;2022-09-01T13:33:38;21.99;59.79
72762;SHT30;60886;55.034;73.150;2022-09-01T13:36:05;21.92;59.38
72762;SHT30;60886;55.034;73.150;2022-09-01T13:38:31;21.82;59.71
72762;SHT30;60886;55.034;73.150;2022-09-01T13:40:58;21.73;59.70
72762;SHT30;60886;55.034;73.150;2022-09-01T13:43:27;21.66;59.69
72762;SHT30;60886;55.034;73.150;2022-09-01T13:45:53;21.60;59.60
72762;SHT30;60886;55.034;73.150;2022-09-01T13:48:20;21.56;59.85
72762;SHT30;60886;55.034;73.150;2022-09-01T13:50:49;21.48;60.02
72762;SHT30;60886;55.034;73.150;2022-09-01T13:53:17;21.41;60.12
72762;SHT30;60886;55.034;73.150;2022-09-01T13:55:45;21.38;60.22
72762;SHT30;60886;55.034;73.150;2022-09-01T13:58:12;21.35;60.33
72762;SHT30;60886;55.034;73.150;2022-09-01T14:00:43;21.34;60.59
72762;SHT30;60886;55.034;73.150;2022-09-01T14:03:13;21.27;60.78
72762;SHT30;60886;55.034;73.150;2022-09-01T14:05:42;21.19;60.97
72762;SHT30;60886;55.034;73.150;2022-09-01T14:08:10;21.15;61.28
72762;SHT30;60886;55.034;73.150;2022-09-01T14:10:46;21.09;61.46
72762;SHT30;60886;55.034;73.150;2022-09-01T14:13:14;21.04;61.96
72762;SHT30;60886;55.034;73.150;2022-09-01T14:15:41;20.97;61.90
72762;SHT30;60886;55.034;73.150;2022-09-01T14:18:14;20.88;62.31
72762;SHT30;60886;55.034;73.150;2022-09-01T14:20:43;20.77;62.57
72762;SHT30;60886;55.034;73.150;2022-09-01T14:23:11;20.71;62.66
72762;SHT30;60886;55.034;73.150;2022-09-01T14:25:45;20.67;63.03
72762;SHT30;60886;55.034;73.150;2022-09-01T14:28:11;20.61;63.16
72762;SHT30;60886;55.034;73.150;2022-09-01T14:30:39;20.60;63.19
72762;SHT30;60886;55.034;73.150;2022-09-01T14:33:08;20.55;63.47
72762;SHT30;60886;55.034;73.150;2022-09-01T14:35:37;20.48;63.69
72762;SHT30;60886;55.034;73.150;2022-09-01T14:38:09;20.43;63.90
72762;SHT30;60886;55.034;73.150;2022-09-01T14:40:38;20.39;64.01
72762;SHT30;60886;55.034;73.150;2022-09-01T14:43:08;20.37;64.17
72762;SHT30;60886;55.034;73.150;2022-09-01T14:45:41;20.30;64.41
72762;SHT30;60886;55.034;73.150;2022-09-01T14:48:11;20.23;64.77
72762;SHT30;60886;55.034;73.150;2022-09-01T14:50:41;20.14;65.14
72762;SHT30;60886;55.034;73.150;2022-09-01T14:53:13;20.09;65.43
72762;SHT30;60886;55.034;73.150;2022-09-01T14:55:41;20.06;65.66
72762;SHT30;60886;55.034;73.150;2022-09-01T14:58:17;20.02;65.86
72762;SHT30;60886;55.034;73.150;2022-09-01T15:00:43;19.94;66.22
72762;SHT30;60886;55.034;73.150;2022-09-01T15:03:10;19.92;66.46
72762;SHT30;60886;55.034;73.150;2022-09-01T15:05:36;19.87;66.67
72762;SHT30;60886;55.034;73.150;2022-09-01T15:08:03;19.82;66.82
72762;SHT30;60886;55.034;73.150;2022-09-01T15:10:29;19.76;67.03
72762;SHT30;60886;55.034;73.150;2022-09-01T15:12:58;19.69;67.47
72762;SHT30;60886;55.034;73.150;2022-09-01T15:15:31;19.66;67.63
72762;SHT30;60886;55.034;73.150;2022-09-01T15:17:59;19.65;67.94
72762;SHT30;60886;55.034;73.150;2022-09-01T15:20:26;19.59;68.31
72762;SHT30;60886;55.034;73.150;2022-09-01T15:23:17;19.52;68.97
72762;SHT30;60886;55.034;73.150;2022-09-01T15:25:44;19.52;69.52
72762;SHT30;60886;55.034;73.150;2022-09-01T15:28:11;19.45;69.67
72762;SHT30;60886;55.034;73.150;2022-09-01T15:30:39;19.36;69.81
72762;SHT30;60886;55.034;73.150;2022-09-01T15:33:16;19.25;70.05
72762;SHT30;60886;55.034;73.150;2022-09-01T15:35:48;19.17;70.16
72762;SHT30;60886;55.034;73.150;2022-09-01T15:38:15;19.11;70.42
72762;SHT30;60886;55.034;73.150;2022-09-01T15:40:51;19.04;70.67
72762;SHT30;60886;55.034;73.150;2022-09-01T15:43:18;18.98;70.98
72762;SHT30;60886;55.034;73.150;2022-09-01T15:45:45;18.93;71.28
72762;SHT30;60886;55.034;73.150;2022-09-01T15:48:16;18.84;71.53
72762;SHT30;60886;55.034;73.150;2022-09-01T15:50:43;18.80;71.71
72762;SHT30;60886;55.034;73.150;2022-09-01T15:53:17;18.68;71.72
72762;SHT30;60886;55.034;73.150;2022-09-01T15:55:53;18.60;71.76
72762;SHT30;60886;55.034;73.150;2022-09-01T15:58:20;18.52;71.67
72762;SHT30;60886;55.034;73.150;2022-09-01T16:00:46;18.43;71.79
72762;SHT30;60886;55.034;73.150;2022-09-01T16:03:16;18.40;71.97
72762;SHT30;60886;55.034;73.150;2022-09-01T16:05:42;18.29;72.33
72762;SHT30;60886;55.034;73.150;2022-09-01T16:08:13;18.22;72.56
72762;SHT30;60886;55.034;73.150;2022-09-01T16:10:45;18.15;72.86
72762;SHT30;60886;55.034;73.150;2022-09-01T16:13:17;18.13;73.10
72762;SHT30;60886;55.034;73.150;2022-09-01T16:15:50;18.06;73.23
72762;SHT30;60886;55.034;73.150;2022-09-01T16:18:54;18.02;73.46
72762;SHT30;60886;55.034;73.150;2022-09-01T16:24:09;17.86;73.76
72762;SHT30;60886;55.034;73.150;2022-09-01T16:26:36;17.83;73.75
72762;SHT30;60886;55.034;73.150;2022-09-01T16:29:08;17.81;73.80
72762;SHT30;60886;55.034;73.150;2022-09-01T16:31:36;17.72;73.88
72762;SHT30;60886;55.034;73.150;2022-09-01T16:34:14;17.70;73.99
72762;SHT30;60886;55.034;73.150;2022-09-01T16:56:14;17.11;74.81
72762;SHT30;60886;55.034;73.150;2022-09-01T16:59:16;17.06;74.91
72762;SHT30;60886;55.034;73.150;2022-09-01T17:04:49;16.91;75.38
72762;SHT30;60886;55.034;73.150;2022-09-01T17:10:30;16.83;75.59
72762;SHT30;60886;55.034;73.150;2022-09-01T17:13:27;16.77;75.79
72762;SHT30;60886;55.034;73.150;2022-09-01T17:16:15;16.67;76.03
72762;SHT30;60886;55.034;73.150;2022-09-01T17:18:53;16.63;76.24
72762;SHT30;60886;55.034;73.150;2022-09-01T17:22:03;16.60;76.60
72762;SHT30;60886;55.034;73.150;2022-09-01T17:24:38;16.52;76.90
72762;SHT30;60886;55.034;73.150;2022-09-01T17:29:55;16.52;76.89
72762;SHT30;60886;55.034;73.150;2022-09-01T17:32:53;16.45;77.08
72762;SHT30;60886;55.034;73.150;2022-09-01T17:35:24;16.38;77.31
72762;SHT30;60886;55.034;73.150;2022-09-01T17:57:55;16.05;78.34
72762;SHT30;60886;55.034;73.150;2022-09-01T18:00:28;15.97;78.62
72762;SHT30;60886;55.034;73.150;2022-09-01T18:04:02;15.91;79.01
72762;SHT30;60886;55.034;73.150;2022-09-01T18:08:57;15.84;79.46
72762;SHT30;60886;55.034;73.150;2022-09-01T18:14:14;15.85;79.25
72762;SHT30;60886;55.034;73.150;2022-09-01T18:19:41;15.81;79.81